createdAt,value
2018-10-17T00:02:27.869Z,90.66
2018-10-17T00:04:58.572Z,90.07
2018-10-17T00:07:28.001Z,89.74
2018-10-17T00:09:58.517Z,90.07
2018-10-17T00:12:28.188Z,89.41
2018-10-17T00:14:57.745Z,89.19
2018-10-17T00:17:27.276Z,89.64
2018-10-17T00:19:56.591Z,90.10
2018-10-17T00:22:26.209Z,90.53
2018-10-17T00:24:55.691Z,90.87
2018-10-17T00:27:26.200Z,91.78
2018-10-17T00:29:56.543Z,91.92
2018-10-17T00:32:26.088Z,91.62
2018-10-17T00:34:55.895Z,91.14
2018-10-17T00:37:24.557Z,91.14
2018-10-17T00:39:54.032Z,90.89
2018-10-17T00:42:22.624Z,90.79
2018-10-17T00:44:51.742Z,90.96
2018-10-17T00:47:20.361Z,91.25
2018-10-17T00:49:48.920Z,91.48
2018-10-17T00:52:17.570Z,91.18
2018-10-17T00:54:46.178Z,91.05
2018-10-17T00:57:14.774Z,91.44
2018-10-17T00:59:43.311Z,91.63
2018-10-17T01:02:11.877Z,92.09
2018-10-17T01:04:41.322Z,92.18
2018-10-17T01:07:09.948Z,91.26
2018-10-17T01:09:39.409Z,90.68
2018-10-17T01:12:09.036Z,90.94
2018-10-17T01:14:37.571Z,91.39
2018-10-17T01:17:06.307Z,91.45
2018-10-17T01:19:35.773Z,91.66
2018-10-17T01:22:04.395Z,91.17
2018-10-17T01:24:32.980Z,91.65
2018-10-17T01:27:01.558Z,91.32
2018-10-17T01:29:31.179Z,91.67
2018-10-17T01:31:59.793Z,92.00
2018-10-17T01:34:28.353Z,92.26
2018-10-17T01:36:57.260Z,92.62
2018-10-17T01:39:26.494Z,92.75
2018-10-17T01:41:55.722Z,92.66
2018-10-17T01:44:25.985Z,92.69
2018-10-17T01:46:54.603Z,92.43
2018-10-17T01:49:24.051Z,92.47
2018-10-17T01:51:52.591Z,92.56
2018-10-17T01:54:21.151Z,92.72
2018-10-17T01:56:49.740Z,92.81
2018-10-17T01:59:18.291Z,92.67
2018-10-17T02:01:46.929Z,92.31
2018-10-17T02:04:15.495Z,92.50
2018-10-17T02:06:44.052Z,92.05
2018-10-17T02:09:12.590Z,92.25
2018-10-17T02:11:41.143Z,92.33
2018-10-17T02:14:09.681Z,92.47
2018-10-17T02:16:38.225Z,92.64
2018-10-17T02:19:06.800Z,93.74
2018-10-17T02:21:35.435Z,94.21
2018-10-17T02:24:03.978Z,94.27
2018-10-17T02:26:33.848Z,94.07
2018-10-17T02:29:02.499Z,93.57
2018-10-17T02:31:31.802Z,93.30
2018-10-17T02:34:01.342Z,93.08
2018-10-17T02:36:29.842Z,92.63
2018-10-17T02:38:58.381Z,92.26
2018-10-17T02:41:27.297Z,92.54
2018-10-17T02:43:57.409Z,92.98
2018-10-17T02:46:26.994Z,92.99
2018-10-17T02:48:55.792Z,92.93
2018-10-17T02:51:25.689Z,93.09
2018-10-17T02:53:55.507Z,92.96
2018-10-17T02:56:24.083Z,92.93
2018-10-17T02:58:52.658Z,93.14
2018-10-17T03:01:21.220Z,93.31
2018-10-17T03:03:49.728Z,93.67
2018-10-17T03:06:18.245Z,93.86
2018-10-17T03:08:46.817Z,93.66
2018-10-17T03:11:15.428Z,93.74
2018-10-17T03:13:43.967Z,93.82
2018-10-17T03:16:13.511Z,93.96
2018-10-17T03:18:42.049Z,94.15
2018-10-17T03:21:10.570Z,94.21
2018-10-17T03:23:39.108Z,94.02
2018-10-17T03:26:07.672Z,93.99
2018-10-17T03:28:36.198Z,93.96
2018-10-17T03:31:04.757Z,93.82
2018-10-17T03:33:33.337Z,93.90
2018-10-17T03:36:02.084Z,94.09
2018-10-17T03:38:30.441Z,94.22
2018-10-17T03:40:59.008Z,94.34
2018-10-17T03:43:28.814Z,94.19
2018-10-17T03:45:57.981Z,93.89
2018-10-17T03:48:27.133Z,93.20
2018-10-17T03:50:55.675Z,92.95
2018-10-17T03:53:24.798Z,93.11
2018-10-17T03:55:53.329Z,93.38
2018-10-17T03:58:21.875Z,93.28
2018-10-17T04:00:50.758Z,93.56
2018-10-17T04:03:19.326Z,93.87
2018-10-17T04:05:47.891Z,93.90
2018-10-17T04:08:16.434Z,94.47
2018-10-17T04:10:45.004Z,94.77
2018-10-17T04:13:14.448Z,94.78
2018-10-17T04:15:43.006Z,94.58
2018-10-17T04:18:11.576Z,94.50
2018-10-17T04:20:41.059Z,94.90
2018-10-17T04:23:09.657Z,95.28
2018-10-17T04:25:38.326Z,95.27
2018-10-17T04:28:06.899Z,95.02
2018-10-17T04:30:35.448Z,94.64
2018-10-17T04:33:03.981Z,94.55
2018-10-17T04:35:32.554Z,94.79
2018-10-17T04:38:01.176Z,95.11
2018-10-17T04:40:29.747Z,95.10
2018-10-17T04:42:58.351Z,94.90
2018-10-17T04:45:28.020Z,94.98
2018-10-17T04:47:57.272Z,95.03
2018-10-17T04:50:26.583Z,94.64
2018-10-17T04:52:56.811Z,94.40
2018-10-17T04:55:25.708Z,94.40
2018-10-17T04:57:54.696Z,94.26
2018-10-17T05:00:26.061Z,93.47
2018-10-17T05:02:55.591Z,93.28
2018-10-17T05:05:25.328Z,93.12
2018-10-17T05:07:54.029Z,93.67
2018-10-17T05:10:22.658Z,93.78
2018-10-17T05:12:52.472Z,94.19
2018-10-17T05:15:21.287Z,94.39
2018-10-17T05:17:50.054Z,94.66
2018-10-17T05:20:20.061Z,94.61
2018-10-17T05:22:48.666Z,94.65
2018-10-17T05:25:17.266Z,94.78
2018-10-17T05:27:45.828Z,95.15
2018-10-17T05:30:15.390Z,95.16
2018-10-17T05:32:43.991Z,94.69
2018-10-17T05:35:12.674Z,94.79
2018-10-17T05:37:41.338Z,94.61
2018-10-17T05:40:09.973Z,94.66
2018-10-17T05:42:38.463Z,94.18
2018-10-17T05:45:08.203Z,93.89
2018-10-17T05:47:36.931Z,93.91
2018-10-17T05:50:05.661Z,93.86
2018-10-17T05:52:34.234Z,93.27
2018-10-17T05:55:02.841Z,92.90
2018-10-17T05:57:32.048Z,93.36
2018-10-17T06:00:00.586Z,93.81
2018-10-17T06:02:31.948Z,94.11
2018-10-17T06:05:01.160Z,94.65
2018-10-17T06:07:30.226Z,94.46
2018-10-17T06:09:58.805Z,94.65
2018-10-17T06:12:28.137Z,94.83
2018-10-17T06:14:57.531Z,94.93
2018-10-17T06:17:26.654Z,94.40
2018-10-17T06:19:56.206Z,94.23
2018-10-17T06:22:25.431Z,94.39
2018-10-17T06:24:55.756Z,94.33
2018-10-17T06:27:26.181Z,94.38
2018-10-17T06:29:55.982Z,94.53
2018-10-17T06:32:26.018Z,94.84
2018-10-17T06:34:55.653Z,94.62
2018-10-17T06:37:25.868Z,94.57
2018-10-17T06:39:56.077Z,94.27
2018-10-17T06:42:24.637Z,94.01
2018-10-17T06:44:54.082Z,93.53
2018-10-17T06:47:22.701Z,93.65
2018-10-17T06:49:52.177Z,93.61
2018-10-17T06:52:21.795Z,93.71
2018-10-17T06:54:50.459Z,93.66
2018-10-17T06:57:20.073Z,93.58
2018-10-17T06:59:48.640Z,93.27
2018-10-17T07:02:17.288Z,93.28
2018-10-17T07:04:46.871Z,93.84
2018-10-17T07:07:16.423Z,93.76
2018-10-17T07:09:44.954Z,93.46
2018-10-17T07:12:13.550Z,92.88
2018-10-17T07:14:42.164Z,92.82
2018-10-17T07:17:10.822Z,92.51
2018-10-17T07:19:39.659Z,91.58
2018-10-17T07:22:08.235Z,90.84
2018-10-17T07:24:36.890Z,90.99
2018-10-17T07:27:06.300Z,90.51
2018-10-17T07:29:36.023Z,90.20
2018-10-17T07:32:04.613Z,89.94
2018-10-17T07:34:34.135Z,90.33
2018-10-17T07:37:02.726Z,90.56
2018-10-17T07:39:32.313Z,90.93
2018-10-17T07:42:01.867Z,91.08
2018-10-17T07:44:30.477Z,90.55
2018-10-17T07:46:59.446Z,90.02
2018-10-17T07:49:28.094Z,89.93
2018-10-17T07:51:57.278Z,88.66
2018-10-17T07:54:27.343Z,88.58
2018-10-17T07:56:56.577Z,88.01
2018-10-17T07:59:27.333Z,87.59
2018-10-17T08:01:57.574Z,86.50
2018-10-17T08:04:28.184Z,86.30
2018-10-17T08:06:57.583Z,85.73
2018-10-17T08:09:27.991Z,84.80
2018-10-17T08:11:58.711Z,84.93
2018-10-17T08:14:28.192Z,85.21
2018-10-17T08:16:58.763Z,84.36
2018-10-17T08:19:28.331Z,84.11
2018-10-17T08:21:58.001Z,84.70
2018-10-17T08:24:27.932Z,83.51
2018-10-17T08:26:58.184Z,82.88
2018-10-17T08:29:28.997Z,82.10
2018-10-17T08:31:59.308Z,82.10
2018-10-17T08:34:28.804Z,81.96
2018-10-17T08:36:58.545Z,81.67
2018-10-17T08:39:27.784Z,81.61
2018-10-17T08:41:57.780Z,81.71
2018-10-17T08:44:28.464Z,81.52
2018-10-17T08:46:57.964Z,81.07
2018-10-17T08:49:27.741Z,81.76
2018-10-17T08:51:56.942Z,79.94
2018-10-17T08:54:27.672Z,80.66
2018-10-17T08:56:57.854Z,79.58
2018-10-17T08:59:28.123Z,79.06
2018-10-17T09:01:58.736Z,78.57
2018-10-17T09:04:28.448Z,77.78
2018-10-17T09:06:57.593Z,77.36
2018-10-17T09:09:26.930Z,76.50
2018-10-17T09:11:56.912Z,77.34
2018-10-17T09:14:26.993Z,77.13
2018-10-17T09:16:56.901Z,76.72
2018-10-17T09:19:26.348Z,76.48
2018-10-17T09:21:56.086Z,76.34
2018-10-17T09:24:25.474Z,74.44
2018-10-17T09:26:54.140Z,75.18
2018-10-17T09:29:22.725Z,74.69
2018-10-17T09:31:52.112Z,73.12
2018-10-17T09:34:20.693Z,72.73
2018-10-17T09:36:50.284Z,72.88
2018-10-17T09:39:19.856Z,73.83
2018-10-17T09:41:48.497Z,72.23
2018-10-17T09:44:17.075Z,71.61
2018-10-17T09:46:45.721Z,71.37
2018-10-17T09:49:15.317Z,71.07
2018-10-17T09:51:44.807Z,69.23
2018-10-17T09:54:14.352Z,70.86
2018-10-17T09:56:43.953Z,71.30
2018-10-17T09:59:12.519Z,70.11
2018-10-17T10:01:47.184Z,68.40
2018-10-17T10:04:16.866Z,68.52
2018-10-17T10:06:46.633Z,68.99
2018-10-17T10:09:15.184Z,67.88
2018-10-17T10:11:43.748Z,68.18
2018-10-17T10:14:13.292Z,68.34
2018-10-17T10:16:41.854Z,67.13
2018-10-17T10:19:10.468Z,67.38
2018-10-17T10:21:39.025Z,66.68
2018-10-17T10:24:07.709Z,67.04
2018-10-17T10:26:36.261Z,66.86
2018-10-17T10:29:04.910Z,66.94
2018-10-17T10:31:33.481Z,65.49
2018-10-17T10:34:02.095Z,65.81
2018-10-17T10:36:30.656Z,65.16
2018-10-17T10:38:59.234Z,64.48
2018-10-17T10:41:27.918Z,64.41
2018-10-17T10:43:57.018Z,65.15
2018-10-17T10:46:26.028Z,65.09
2018-10-17T10:48:54.965Z,63.86
2018-10-17T10:51:23.726Z,64.14
2018-10-17T10:53:52.162Z,64.04
2018-10-17T10:56:20.739Z,63.45
2018-10-17T10:58:49.471Z,63.04
2018-10-17T11:01:18.269Z,63.31
2018-10-17T11:03:47.894Z,62.54
2018-10-17T11:06:16.432Z,62.45
2018-10-17T11:08:45.007Z,62.65
2018-10-17T11:11:13.617Z,62.48
2018-10-17T11:13:43.105Z,62.20
2018-10-17T11:16:11.658Z,62.07
2018-10-17T11:18:41.898Z,60.91
2018-10-17T11:21:10.539Z,61.86
2018-10-17T11:23:39.135Z,59.25
2018-10-17T11:26:07.702Z,59.77
2018-10-17T11:28:36.288Z,59.87
2018-10-17T11:31:04.876Z,59.06
2018-10-17T11:33:33.433Z,59.27
2018-10-17T11:36:02.017Z,60.55
2018-10-17T11:38:30.614Z,60.00
2018-10-17T11:40:59.232Z,58.60
2018-10-17T11:43:28.421Z,60.12
2018-10-17T11:45:57.452Z,58.55
2018-10-17T11:48:26.669Z,58.30
2018-10-17T11:50:56.355Z,58.58
2018-10-17T11:53:26.486Z,58.37
2018-10-17T11:55:55.503Z,58.02
2018-10-17T11:58:24.079Z,58.87
2018-10-17T12:00:52.695Z,58.82
2018-10-17T12:03:21.609Z,58.36
2018-10-17T12:05:50.378Z,58.08
2018-10-17T12:08:18.809Z,58.54
2018-10-17T12:10:47.421Z,57.43
2018-10-17T12:13:15.962Z,57.40
2018-10-17T12:15:45.012Z,56.52
2018-10-17T12:18:13.862Z,56.72
2018-10-17T12:20:42.432Z,56.71
2018-10-17T12:23:11.008Z,55.86
2018-10-17T12:25:39.612Z,56.46
2018-10-17T12:28:08.386Z,56.52
2018-10-17T12:30:36.871Z,56.95
2018-10-17T12:33:06.598Z,56.14
2018-10-17T12:35:35.152Z,56.17
2018-10-17T12:38:03.722Z,56.48
2018-10-17T12:40:32.421Z,55.72
2018-10-17T12:43:00.898Z,56.85
2018-10-17T12:45:29.481Z,57.18
2018-10-17T12:47:58.079Z,56.87
2018-10-17T12:50:27.534Z,56.47
2018-10-17T12:52:57.256Z,55.85
2018-10-17T12:55:26.830Z,55.89
2018-10-17T12:57:55.943Z,55.70
2018-10-17T13:00:24.487Z,55.84
2018-10-17T13:02:53.038Z,56.55
2018-10-17T13:05:21.624Z,54.65
2018-10-17T13:07:50.236Z,55.18
2018-10-17T13:10:18.808Z,56.05
2018-10-17T13:12:47.370Z,56.04
2018-10-17T13:15:15.971Z,54.44
2018-10-17T13:17:45.825Z,55.16
2018-10-17T13:20:14.831Z,54.50
2018-10-17T13:22:43.395Z,54.81
2018-10-17T13:25:12.102Z,54.98
2018-10-17T13:27:40.615Z,54.90
2018-10-17T13:30:09.523Z,54.94
2018-10-17T13:32:38.286Z,55.01
2018-10-17T13:35:07.499Z,55.44
2018-10-17T13:37:36.393Z,56.40
2018-10-17T13:40:05.174Z,55.61
2018-10-17T13:42:33.736Z,54.82
2018-10-17T13:45:02.413Z,55.66
2018-10-17T13:47:31.317Z,56.83
2018-10-17T13:50:00.147Z,55.61
2018-10-17T13:52:28.646Z,53.84
2018-10-17T13:54:57.888Z,55.71
2018-10-17T13:57:27.576Z,54.20
2018-10-17T13:59:56.812Z,55.65
2018-10-17T14:02:25.696Z,56.83
2018-10-17T14:04:54.784Z,57.03
2018-10-17T14:07:25.049Z,56.68
2018-10-17T14:09:53.590Z,56.28
2018-10-17T14:12:22.153Z,56.75
2018-10-17T14:14:50.701Z,56.71
2018-10-17T14:17:19.255Z,56.64
2018-10-17T14:19:47.797Z,56.89
2018-10-17T14:22:16.385Z,57.57
2018-10-17T14:24:44.899Z,57.31
2018-10-17T14:27:13.860Z,57.69
2018-10-17T14:29:42.461Z,57.50
2018-10-17T14:32:10.988Z,57.74
2018-10-17T14:34:39.573Z,56.93
2018-10-17T14:37:08.313Z,57.13
2018-10-17T14:39:36.983Z,57.62
2018-10-17T14:42:05.947Z,57.85
2018-10-17T14:44:34.550Z,58.52
2018-10-17T14:47:03.105Z,58.59
2018-10-17T14:49:31.710Z,59.13
2018-10-17T14:52:00.503Z,59.06
2018-10-17T14:54:29.936Z,59.59
2018-10-17T14:56:58.603Z,60.40
2018-10-17T14:59:27.770Z,60.61
2018-10-17T15:01:56.988Z,60.28
2018-10-17T15:04:25.996Z,61.13
2018-10-17T15:06:54.548Z,61.37
2018-10-17T15:09:24.166Z,61.88
2018-10-17T15:11:53.174Z,61.57
2018-10-17T15:14:21.672Z,61.93
2018-10-17T15:16:50.595Z,63.49
2018-10-17T15:19:19.193Z,63.05
2018-10-17T15:21:47.772Z,64.07
2018-10-17T15:24:16.403Z,64.14
2018-10-17T15:26:45.015Z,65.32
2018-10-17T15:29:13.581Z,65.30
2018-10-17T15:31:42.420Z,66.07
2018-10-17T15:34:11.180Z,66.47
2018-10-17T15:36:39.776Z,66.73
2018-10-17T15:39:10.335Z,66.68
2018-10-17T15:41:39.801Z,66.30
2018-10-17T15:44:09.002Z,66.62
2018-10-17T15:46:38.513Z,66.69
2018-10-17T15:49:07.370Z,66.57
2018-10-17T15:51:36.124Z,66.93
2018-10-17T15:54:04.832Z,67.02
2018-10-17T15:56:34.439Z,67.76
2018-10-17T15:59:03.925Z,67.31
2018-10-17T16:01:33.418Z,68.10
2018-10-17T16:04:02.054Z,67.72
2018-10-17T16:06:30.669Z,68.39
2018-10-17T16:09:00.287Z,68.66
2018-10-17T16:11:28.938Z,69.00
2018-10-17T16:13:58.435Z,68.64
2018-10-17T16:16:28.021Z,69.10
2018-10-17T16:18:58.582Z,68.72
2018-10-17T16:21:28.155Z,69.58
2018-10-17T16:23:57.490Z,70.13
2018-10-17T16:26:27.270Z,70.51
2018-10-17T16:28:56.821Z,70.91
2018-10-17T16:31:25.665Z,70.75
2018-10-17T16:33:55.503Z,72.10
2018-10-17T16:36:25.635Z,72.13
2018-10-17T16:38:55.387Z,72.21
2018-10-17T16:41:24.098Z,72.60
2018-10-17T16:43:52.747Z,72.69
2018-10-17T16:46:21.656Z,72.18
2018-10-17T16:48:51.220Z,72.70
2018-10-17T16:51:20.786Z,73.87
2018-10-17T16:53:50.329Z,73.48
2018-10-17T16:56:18.940Z,73.84
2018-10-17T16:58:48.398Z,74.48
2018-10-17T17:01:16.996Z,74.87
2018-10-17T17:03:46.566Z,75.65
2018-10-17T17:06:15.218Z,75.38
2018-10-17T17:08:43.770Z,75.25
2018-10-17T17:11:12.990Z,75.86
2018-10-17T17:13:42.085Z,76.12
2018-10-17T17:16:10.784Z,75.92
2018-10-17T17:18:39.347Z,76.83
2018-10-17T17:21:08.018Z,76.83
2018-10-17T17:23:37.611Z,76.95
2018-10-17T17:26:07.149Z,77.09
2018-10-17T17:28:35.736Z,76.98
2018-10-17T17:31:05.569Z,77.70
2018-10-17T17:33:34.226Z,78.01
2018-10-17T17:36:02.867Z,78.21
2018-10-17T17:38:31.514Z,78.44
2018-10-17T17:41:00.116Z,78.33
2018-10-17T17:43:29.706Z,79.27
2018-10-17T17:45:59.373Z,79.34
2018-10-17T17:48:27.984Z,78.54
2018-10-17T17:50:57.304Z,78.78
2018-10-17T17:53:27.503Z,78.99
2018-10-17T17:55:56.613Z,79.81
2018-10-17T17:58:25.888Z,79.74
2018-10-17T18:00:54.764Z,79.42
2018-10-17T18:03:24.980Z,80.20
2018-10-17T18:05:55.025Z,80.19
2018-10-17T18:08:23.874Z,80.35
2018-10-17T18:10:53.975Z,81.05
2018-10-17T18:13:22.541Z,80.96
2018-10-17T18:15:51.999Z,81.44
2018-10-17T18:18:21.556Z,82.02
2018-10-17T18:20:50.916Z,82.87
2018-10-17T18:23:19.498Z,82.33
2018-10-17T18:25:48.047Z,83.19
2018-10-17T18:28:16.715Z,82.93
2018-10-17T18:30:46.113Z,82.63
2018-10-17T18:33:15.590Z,83.48
2018-10-17T18:35:44.282Z,82.79
2018-10-17T18:38:12.879Z,82.93
2018-10-17T18:40:42.886Z,83.58
2018-10-17T18:43:11.418Z,83.51
2018-10-17T18:45:40.979Z,84.03
2018-10-17T18:48:10.618Z,84.34
2018-10-17T18:50:40.174Z,84.14
2018-10-17T18:53:09.649Z,84.31
2018-10-17T18:55:38.236Z,84.29
2018-10-17T18:58:07.799Z,85.13
2018-10-17T19:00:37.417Z,85.13
2018-10-17T19:03:06.592Z,85.30
2018-10-17T19:05:36.161Z,85.27
2018-10-17T19:08:06.262Z,85.48
2018-10-17T19:10:34.996Z,85.07
2018-10-17T19:13:04.013Z,85.91
2018-10-17T19:15:32.583Z,85.56
2018-10-17T19:18:01.305Z,85.72
2018-10-17T19:20:29.951Z,86.00
2018-10-17T19:22:58.569Z,85.55
2018-10-17T19:25:28.337Z,86.24
2018-10-17T19:27:57.911Z,86.21
2018-10-17T19:30:27.135Z,85.89
2018-10-17T19:32:56.095Z,85.55
2018-10-17T19:35:24.666Z,85.73
2018-10-17T19:37:53.293Z,86.57
2018-10-17T19:40:21.850Z,86.92
2018-10-17T19:42:50.928Z,86.79
2018-10-17T19:45:19.905Z,86.72
2018-10-17T19:47:48.710Z,87.04
2018-10-17T19:50:17.613Z,86.38
2018-10-17T19:52:46.251Z,86.67
2018-10-17T19:55:14.912Z,86.51
2018-10-17T19:57:43.531Z,86.79
2018-10-17T20:00:14.752Z,86.74
2018-10-17T20:02:44.061Z,87.64
2018-10-17T20:05:13.009Z,87.73
2018-10-17T20:07:41.655Z,87.61
2018-10-17T20:10:10.342Z,88.01
2018-10-17T20:12:38.979Z,87.80
2018-10-17T20:15:07.837Z,88.07
2018-10-17T20:17:36.398Z,87.93
2018-10-17T20:20:06.853Z,88.25
2018-10-17T20:22:35.417Z,88.83
2018-10-17T20:25:05.279Z,88.42
2018-10-17T20:27:34.071Z,88.34
2018-10-17T20:30:02.648Z,88.67
2018-10-17T20:32:31.221Z,88.75
2018-10-17T20:35:00.763Z,89.57
2018-10-17T20:37:29.343Z,89.54
2018-10-17T20:39:58.740Z,89.23
2018-10-17T20:42:28.123Z,89.63
2018-10-17T20:44:58.537Z,89.74
2018-10-17T20:47:27.995Z,89.85
2018-10-17T20:49:57.306Z,90.65
2018-10-17T20:52:28.086Z,90.21
2018-10-17T20:54:56.931Z,89.39
2018-10-17T20:57:27.843Z,88.96
2018-10-17T20:59:56.866Z,88.97
2018-10-17T21:02:26.762Z,88.91
2018-10-17T21:04:56.734Z,88.86
2018-10-17T21:07:25.763Z,89.57
2018-10-17T21:09:55.037Z,89.73
2018-10-17T21:12:23.615Z,89.77
2018-10-17T21:14:52.278Z,89.21
2018-10-17T21:17:20.790Z,88.96
2018-10-17T21:19:49.363Z,88.81
2018-10-17T21:22:18.165Z,89.38
2018-10-17T21:24:47.006Z,89.34
2018-10-17T21:27:16.104Z,89.98
2018-10-17T21:29:44.833Z,90.40
2018-10-17T21:32:13.902Z,89.75
2018-10-17T21:34:43.281Z,90.10
2018-10-17T21:37:12.103Z,90.11
2018-10-17T21:39:40.720Z,90.49
2018-10-17T21:42:09.262Z,90.52
2018-10-17T21:44:37.823Z,90.67
2018-10-17T21:47:06.777Z,90.35
2018-10-17T21:49:36.047Z,91.12
2018-10-17T21:52:04.909Z,90.86
2018-10-17T21:54:33.433Z,91.12
2018-10-17T21:57:01.944Z,91.41
2018-10-17T21:59:30.513Z,91.35
2018-10-17T22:01:59.108Z,91.63
2018-10-17T22:04:28.089Z,91.79
2018-10-17T22:06:58.570Z,91.63
2018-10-17T22:09:27.491Z,91.87
2018-10-17T22:11:56.409Z,91.54
2018-10-17T22:14:25.384Z,91.57
2018-10-17T22:16:59.328Z,91.32
2018-10-17T22:19:28.805Z,91.62
2018-10-17T22:21:58.187Z,91.97
2018-10-17T22:24:27.593Z,91.78
2018-10-17T22:26:56.694Z,91.70
2018-10-17T22:29:26.487Z,91.44
2018-10-17T22:31:55.856Z,91.19
2018-10-17T22:34:25.028Z,91.51
2018-10-17T22:36:54.706Z,91.52
2018-10-17T22:39:23.284Z,92.02
2018-10-17T22:41:52.904Z,92.11
2018-10-17T22:44:21.437Z,92.31
2018-10-17T22:46:50.887Z,92.27
2018-10-17T22:49:20.486Z,92.04
2018-10-17T22:51:50.016Z,91.91
2018-10-17T22:54:19.456Z,91.97
2018-10-17T22:56:48.915Z,91.99
2018-10-17T22:59:18.403Z,92.44
2018-10-17T23:01:47.931Z,92.75
2018-10-17T23:04:17.486Z,92.18
2018-10-17T23:06:47.093Z,92.34
2018-10-17T23:09:16.498Z,92.26
2018-10-17T23:11:45.972Z,91.81
2018-10-17T23:14:14.594Z,91.27
2018-10-17T23:16:44.171Z,91.30
2018-10-17T23:19:13.086Z,92.12
2018-10-17T23:21:42.527Z,92.13
2018-10-17T23:24:12.184Z,92.61
2018-10-17T23:26:41.794Z,92.62
2018-10-17T23:29:11.298Z,92.49
2018-10-17T23:31:40.783Z,91.99
2018-10-17T23:34:09.399Z,92.20
2018-10-17T23:36:39.016Z,92.33
2018-10-17T23:39:09.581Z,92.31
2018-10-17T23:41:38.690Z,92.88
2018-10-17T23:44:07.301Z,93.43
2018-10-17T23:46:36.917Z,93.15
2018-10-17T23:49:06.442Z,93.07
2018-10-17T23:51:35.862Z,92.98
2018-10-17T23:54:04.974Z,92.75
2018-10-17T23:56:33.533Z,92.65
2018-10-17T23:59:03.082Z,92.83
